Time;durP1;ratioP1;P1;durP2;ratioP2;P2;SDS_P1;SDS_P2;PMS_P1;PMS_P2;Temp;Humidity;BMP_temperature;BMP_pressure;BME280_temperature;BME280_humidity;BME280_pressure;Samples;Min_cycle;Max_cycle;Signal;HPM_P1;HPM_P2
2022/07/04 00:02:13;;;;;;;3.00;1.30;;;;;;;19.88;nan;100705.88;4989974;28;20436;-72
2022/07/04 00:04:38;;;;;;;2.38;1.13;;;;;;;19.91;nan;100713.50;5009378;28;20052;-72
2022/07/04 00:07:03;;;;;;;3.13;1.02;;;;;;;19.94;nan;100705.03;5008414;28;20041;-72
2022/07/04 00:09:29;;;;;;;2.50;1.30;;;;;;;19.95;nan;100709.38;5005941;28;20522;-72
2022/07/04 00:11:54;;;;;;;3.45;1.30;;;;;;;19.91;nan;100711.66;5006838;28;20072;-72
2022/07/04 00:14:20;;;;;;;1.65;1.20;;;;;;;19.91;nan;100708.97;5007147;28;20128;-72
2022/07/04 00:16:45;;;;;;;3.90;1.10;;;;;;;19.92;nan;100710.59;5006317;28;20067;-72
2022/07/04 00:19:10;;;;;;;1.67;1.02;;;;;;;19.95;nan;100709.38;5007179;28;20622;-72
2022/07/04 00:21:35;;;;;;;1.10;0.80;;;;;;;19.98;nan;100710.81;5007095;28;20523;-72
2022/07/04 00:24:01;;;;;;;1.43;0.90;;;;;;;19.98;nan;100708.97;5007160;28;20037;-72
2022/07/04 00:26:27;;;;;;;2.50;1.25;;;;;;;19.95;nan;100709.38;5006189;28;20642;-72
2022/07/04 00:28:53;;;;;;;2.50;0.82;;;;;;;20.13;nan;100706.84;5006114;28;20412;-73
2022/07/04 00:31:18;;;;;;;1.65;0.90;;;;;;;20.05;nan;100700.91;5007226;28;20092;-72
2022/07/04 00:33:43;;;;;;;1.27;0.80;;;;;;;20.03;nan;100702.97;5008491;28;20049;-71
2022/07/04 00:36:08;;;;;;;1.50;0.87;;;;;;;20.00;nan;100696.16;5009365;28;20594;-72
2022/07/04 00:38:34;;;;;;;2.58;1.02;;;;;;;19.96;nan;100692.22;5008297;28;20272;-72
2022/07/04 00:40:59;;;;;;;3.15;1.08;;;;;;;19.94;nan;100694.31;5007410;28;20296;-72
2022/07/04 00:43:25;;;;;;;;;;;;;;;19.88;nan;100693.28;5007758;28;20026;-72
2022/07/04 00:45:51;;;;;;;2.10;1.10;;;;;;;19.91;nan;100697.41;5006923;28;19921;-72
2022/07/04 00:48:18;;;;;;;1.98;1.00;;;;;;;19.92;nan;100694.50;5005909;28;20046;-72
2022/07/04 00:50:44;;;;;;;1.10;0.70;;;;;;;20.05;nan;100701.72;5004875;28;20413;-74
2022/07/04 00:53:10;;;;;;;1.58;0.85;;;;;;;19.96;nan;100707.53;5006088;28;20033;-72
2022/07/04 00:55:36;;;;;;;1.08;0.60;;;;;;;20.04;nan;100712.66;5006044;28;20941;-74
2022/07/04 00:58:01;;;;;;;0.93;0.60;;;;;;;20.05;nan;100712.47;5006406;28;20421;-74
2022/07/04 01:00:26;;;;;;;;;;;;;;;19.87;nan;100718.47;4996900;28;20037;-72
2022/07/04 01:02:52;;;;;;;1.40;0.87;;;;;;;19.86;nan;100721.38;4991382;28;19917;-71
2022/07/04 01:05:17;;;;;;;2.03;0.80;;;;;;;19.83;nan;100722.63;5009092;28;20044;-71
2022/07/04 01:07:43;;;;;;;1.60;0.98;;;;;;;19.79;nan;100731.28;5008963;28;20357;-71
2022/07/04 01:10:09;;;;;;;1.75;0.82;;;;;;;19.74;nan;100726.53;5005848;28;20458;-71
2022/07/04 01:12:35;;;;;;;1.98;0.90;;;;;;;19.72;nan;100731.28;5006283;28;20038;-71
2022/07/04 01:15:00;;;;;;;2.00;1.00;;;;;;;19.69;nan;100726.34;5009361;28;20037;-71
2022/07/04 01:17:25;;;;;;;1.65;1.13;;;;;;;19.60;nan;100722.19;5010309;28;20041;-71
2022/07/04 01:19:51;;;;;;;;;;;;;;;19.55;nan;100741.56;5011349;28;20045;-71
2022/07/04 01:22:17;;;;;;;1.85;0.90;;;;;;;19.56;nan;100745.88;5010691;28;19999;-71
2022/07/04 01:24:42;;;;;;;1.80;0.88;;;;;;;19.57;nan;100741.34;5010675;28;20041;-71
2022/07/04 01:27:07;;;;;;;2.88;1.33;;;;;;;19.53;nan;100743.63;5010004;28;20063;-71
2022/07/04 01:29:33;;;;;;;2.33;1.10;;;;;;;19.52;nan;100742.81;5010411;28;20037;-71
2022/07/04 01:32:07;;;;;;;1.52;0.90;;;;;;;19.55;nan;100757.66;5010433;28;20087;-71
2022/07/04 01:34:33;;;;;;;1.85;1.00;;;;;;;19.72;nan;100748.19;5009009;28;20476;-73
2022/07/04 01:37:00;;;;;;;2.10;1.30;;;;;;;19.61;nan;100754.13;5011820;28;20204;-71
2022/07/04 01:39:26;;;;;;;2.75;1.10;;;;;;;19.55;nan;100746.13;5029871;28;20036;-71
2022/07/04 01:41:52;;;;;;;;;;;;;;;19.50;nan;100750.22;5011938;28;20068;-71
2022/07/04 01:44:17;;;;;;;2.83;1.00;;;;;;;19.53;nan;100759.72;5010758;28;19936;-71
2022/07/04 01:46:42;;;;;;;1.88;0.90;;;;;;;19.51;nan;100761.78;5009079;28;20041;-71
2022/07/04 01:49:08;;;;;;;1.77;1.02;;;;;;;19.53;nan;100755.19;5009629;28;20030;-71
2022/07/04 01:51:33;;;;;;;;;;;;;;;19.48;nan;100759.50;5009248;28;20060;-71
2022/07/04 01:53:58;;;;;;;;;;;;;;;19.37;nan;100750.19;5010433;28;19928;-71
2022/07/04 01:56:24;;;;;;;4.20;1.20;;;;;;;19.32;nan;100763.41;4991887;28;20943;-71
2022/07/04 01:58:49;;;;;;;2.07;0.87;;;;;;;19.44;nan;100758.25;5005479;28;20393;-73
2022/07/04 02:01:29;;;;;;;2.13;1.07;;;;;;;19.26;nan;100765.06;5008609;28;20422;-71
2022/07/04 02:03:55;;;;;;;1.77;0.90;;;;;;;19.37;nan;100766.28;5009059;28;20421;-73
2022/07/04 02:06:20;;;;;;;;;;;;;;;19.21;nan;100750.56;5011339;28;20295;-71
2022/07/04 02:13:00;;;;;;;1.70;0.90;;;;;;;18.96;nan;100767.22;5005072;28;20036;-71
2022/07/04 02:14:15;;;;;;;3.22;1.10;;;;;;;18.87;nan;100766.56;5008392;28;20219;-71
2022/07/04 02:16:40;;;;;;;;;;;;;;;18.80;nan;100765.72;5009099;28;20033;-71
2022/07/04 02:19:05;;;;;;;1.97;1.00;;;;;;;18.79;nan;100766.75;5007962;28;21183;-71
2022/07/04 02:21:31;;;;;;;1.95;0.88;;;;;;;18.91;nan;100772.38;5007457;28;20436;-71
2022/07/04 02:23:56;;;;;;;1.45;0.80;;;;;;;18.96;nan;100766.41;5005967;28;20778;-73
2022/07/04 02:26:22;;;;;;;1.00;0.70;;;;;;;18.99;nan;100771.34;5007111;28;20805;-73
2022/07/04 02:28:47;;;;;;;2.37;0.83;;;;;;;18.98;nan;100772.41;5007432;28;20393;-72
2022/07/04 02:31:12;;;;;;;3.13;0.90;;;;;;;18.81;nan;100767.38;5008688;28;20467;-71
2022/07/04 02:33:38;;;;;;;1.65;0.90;;;;;;;18.74;nan;100774.53;5008680;28;20030;-71
2022/07/04 02:36:03;;;;;;;1.70;0.77;;;;;;;18.83;nan;100777.88;5007913;28;20428;-73
2022/07/04 02:38:29;;;;;;;1.92;0.98;;;;;;;18.65;nan;100773.03;5011377;28;20033;-71
2022/07/04 02:40:54;;;;;;;;;;;;;;;18.56;nan;100780.41;5006818;28;20038;-71
2022/07/04 02:43:19;;;;;;;2.70;1.03;;;;;;;18.50;nan;100769.69;4990648;28;20371;-71
2022/07/04 02:45:45;;;;;;;2.55;1.35;;;;;;;18.42;nan;100771.50;5017602;28;20030;-71
2022/07/04 02:48:10;;;;;;;2.70;1.13;;;;;;;18.38;nan;100772.09;5010463;28;20052;-71
2022/07/04 02:50:36;;;;;;;2.97;0.90;;;;;;;18.33;nan;100774.50;4991586;28;20042;-71
2022/07/04 02:53:01;;;;;;;2.23;0.90;;;;;;;18.27;nan;100776.13;5008278;28;20712;-71
2022/07/04 02:55:26;;;;;;;2.17;0.93;;;;;;;18.25;nan;100776.31;4991855;28;20303;-71
2022/07/04 02:57:52;;;;;;;1.40;0.82;;;;;;;18.19;nan;100787.81;5008490;28;20042;-71
2022/07/04 03:00:17;;;;;;;2.10;1.00;;;;;;;18.16;nan;100792.72;4991328;28;20042;-71
2022/07/04 03:02:42;;;;;;;1.67;0.85;;;;;;;18.10;nan;100802.38;5008166;28;20766;-70
2022/07/04 03:05:08;;;;;;;2.08;1.00;;;;;;;18.07;nan;100807.25;5008618;28;20037;-71
2022/07/04 03:07:33;;;;;;;2.83;0.82;;;;;;;18.02;nan;100808.69;5008048;28;20026;-71
2022/07/04 03:09:58;;;;;;;4.65;1.20;;;;;;;17.94;nan;100803.47;5008940;28;20026;-71
2022/07/04 03:12:23;;;;;;;1.65;0.98;;;;;;;17.87;nan;100802.59;5008033;28;20038;-71
2022/07/04 03:14:49;;;;;;;2.22;1.13;;;;;;;17.82;nan;100813.03;5007720;28;20029;-71
2022/07/04 03:17:14;;;;;;;2.28;1.05;;;;;;;17.77;nan;100813.59;5008101;28;20052;-70
2022/07/04 03:19:39;;;;;;;3.10;1.08;;;;;;;17.71;nan;100811.69;5007380;28;20026;-71
2022/07/04 03:22:05;;;;;;;2.53;1.25;;;;;;;17.66;nan;100814.09;5007750;28;20076;-72
2022/07/04 03:24:30;;;;;;;2.45;1.15;;;;;;;17.60;nan;100812.19;5007712;28;20395;-71
2022/07/04 03:26:55;;;;;;;3.13;1.20;;;;;;;17.53;nan;100816.66;5007580;28;20041;-72
2022/07/04 03:29:20;;;;;;;2.00;1.15;;;;;;;17.48;nan;100819.88;5008749;28;20277;-71
2022/07/04 03:31:46;;;;;;;1.90;1.20;;;;;;;17.41;nan;100819.00;5008790;28;20045;-71
2022/07/04 03:34:11;;;;;;;2.67;1.20;;;;;;;17.38;nan;100832.75;5009451;28;20116;-71
2022/07/04 03:36:36;;;;;;;3.42;1.23;;;;;;;17.31;nan;100830.00;5008144;28;20033;-71
2022/07/04 03:39:02;;;;;;;3.97;1.40;;;;;;;17.27;nan;100825.22;5009960;28;21230;-71
2022/07/04 03:41:27;;;;;;;2.28;1.30;;;;;;;17.20;nan;100833.16;5007610;28;20417;-71
2022/07/04 03:43:52;;;;;;;1.85;1.30;;;;;;;17.13;nan;100827.72;5008875;28;20609;-73
2022/07/04 03:46:17;;;;;;;3.43;1.20;;;;;;;17.09;nan;100830.94;5007867;28;20040;-71
2022/07/04 03:48:43;;;;;;;4.03;1.38;;;;;;;17.03;nan;100826.38;5007675;28;20634;-71
2022/07/04 03:51:08;;;;;;;;;;;;;;;16.98;nan;100829.59;5007688;28;20064;-71
2022/07/04 03:53:33;;;;;;;;;;;;;;;16.96;nan;100835.13;5008844;28;19956;-72
2022/07/04 03:55:59;;;;;;;1.67;1.00;;;;;;;16.97;nan;100830.59;5006730;28;19925;-71
2022/07/04 03:58:24;;;;;;;1.73;0.80;;;;;;;17.11;nan;100839.63;5005209;28;20424;-71
2022/07/04 04:00:50;;;;;;;2.27;1.00;;;;;;;17.02;nan;100840.72;4988999;28;20495;-70
2022/07/04 04:05:59;;;;;;;1.70;1.20;;;;;;;16.92;nan;100836.53;4998236;28;20517;-71
2022/07/04 04:08:24;;;;;;;2.40;0.98;;;;;;;16.91;nan;100847.38;5004562;28;20061;-71
2022/07/04 04:10:53;;;;;;;1.40;1.00;;;;;;;16.89;nan;100844.88;5005919;28;20044;-73
2022/07/04 04:13:18;;;;;;;2.35;1.10;;;;;;;16.89;nan;100849.41;5004173;28;20513;-71
2022/07/04 04:15:43;;;;;;;1.23;0.93;;;;;;;16.91;nan;100839.38;5007487;28;20447;-70
2022/07/04 04:18:09;;;;;;;2.03;1.40;;;;;;;16.92;nan;100841.00;5006673;28;20041;-72
2022/07/04 04:20:34;;;;;;;2.60;1.33;;;;;;;16.90;nan;100835.88;5008649;28;20293;-72
2022/07/04 04:22:59;;;;;;;2.53;1.30;;;;;;;16.90;nan;100832.34;5007893;28;20782;-71
2022/07/04 04:25:25;;;;;;;2.08;1.02;;;;;;;16.91;nan;100840.19;5009001;28;20160;-71
2022/07/04 04:27:50;;;;;;;2.28;1.35;;;;;;;16.95;nan;100840.66;5007446;28;20117;-71
2022/07/04 04:30:15;;;;;;;2.30;1.20;;;;;;;16.98;nan;100846.44;5007928;28;20045;-71
2022/07/04 04:32:40;;;;;;;4.57;1.63;;;;;;;16.94;nan;100853.16;5008560;28;20135;-72
2022/07/04 04:35:06;;;;;;;3.03;1.70;;;;;;;16.95;nan;100857.50;5009371;28;20514;-72
2022/07/04 04:37:31;;;;;;;3.28;1.60;;;;;;;16.97;nan;100857.31;5003183;28;20452;-70
2022/07/04 04:39:57;;;;;;;1.95;1.17;;;;;;;17.02;nan;100862.94;5004881;28;20030;-71
2022/07/04 04:42:22;;;;;;;2.42;1.30;;;;;;;17.04;nan;100860.94;5006062;28;20064;-71
2022/07/04 04:44:48;;;;;;;3.08;1.30;;;;;;;17.09;nan;100863.88;5008717;28;20399;-71
2022/07/04 04:47:13;;;;;;;2.20;1.30;;;;;;;17.10;nan;100862.00;5005608;28;20088;-71
2022/07/04 04:49:39;;;;;;;4.93;1.60;;;;;;;17.12;nan;100871.50;5010241;28;20042;-71
2022/07/04 04:52:05;;;;;;;2.35;1.40;;;;;;;17.14;nan;100877.50;5009793;28;20136;-73
2022/07/04 04:54:31;;;;;;;;;;;;;;;17.16;nan;100886.16;5009176;28;20041;-71
2022/07/04 04:56:56;;;;;;;4.67;1.63;;;;;;;17.22;nan;100879.22;5010193;28;19917;-71
2022/07/04 04:59:21;;;;;;;3.40;1.70;;;;;;;17.28;nan;100883.84;5010071;28;20037;-71
2022/07/04 05:01:46;;;;;;;;;;;;;;;17.31;nan;100882.63;5011193;28;20300;-71
2022/07/04 05:04:14;;;;;;;3.23;1.50;;;;;;;17.36;nan;100885.56;5012427;28;19917;-72
2022/07/04 05:06:39;;;;;;;5.85;1.52;;;;;;;17.38;nan;100894.22;5012209;28;20475;-71
2022/07/04 05:09:05;;;;;;;3.55;1.52;;;;;;;17.41;nan;100888.50;5010901;28;20266;-71
2022/07/04 05:11:30;;;;;;;2.30;1.42;;;;;;;17.45;nan;100897.81;5010443;28;20037;-71
2022/07/04 05:13:55;;;;;;;4.15;1.67;;;;;;;17.48;nan;100889.41;5009214;28;20049;-73
2022/07/04 05:16:20;;;;;;;4.95;1.80;;;;;;;17.50;nan;100887.38;5008038;28;20087;-71
2022/07/04 05:18:46;;;;;;;1.97;1.40;;;;;;;17.55;nan;100886.81;5010287;28;20046;-71
2022/07/04 05:21:11;;;;;;;3.72;1.35;;;;;;;17.60;nan;100884.41;5009774;28;20523;-71
2022/07/04 05:23:36;;;;;;;3.72;1.70;;;;;;;17.63;nan;100882.16;4991546;28;20035;-71
2022/07/04 05:26:02;;;;;;;2.80;1.67;;;;;;;17.71;nan;100891.06;5008700;28;20069;-71
2022/07/04 05:28:27;;;;;;;3.67;1.60;;;;;;;17.76;nan;100886.84;5010219;28;20045;-71
2022/07/04 05:30:52;;;;;;;2.72;1.65;;;;;;;17.89;nan;100886.16;5007194;28;20104;-71
2022/07/04 05:33:18;;;;;;;2.55;1.40;;;;;;;18.04;nan;100889.63;5010760;28;20034;-71
2022/07/04 05:35:43;;;;;;;2.47;1.42;;;;;;;18.09;nan;100889.03;5010074;28;20060;-71
2022/07/04 05:38:09;;;;;;;3.50;1.23;;;;;;;18.20;nan;100893.03;5007920;28;20056;-71
2022/07/04 05:40:34;;;;;;;2.28;1.20;;;;;;;18.30;nan;100898.06;5010595;28;20034;-71
2022/07/04 05:42:59;;;;;;;3.78;1.42;;;;;;;18.47;nan;100907.44;5007196;28;20042;-71
2022/07/04 05:45:25;;;;;;;2.13;1.48;;;;;;;18.64;nan;100908.00;5009901;28;20030;-70
2022/07/04 05:47:50;;;;;;;2.78;1.30;;;;;;;18.78;nan;100914.28;5009221;28;20034;-71
2022/07/04 05:50:16;;;;;;;3.25;1.30;;;;;;;19.00;nan;100917.75;5009324;28;20454;-71
2022/07/04 05:52:41;;;;;;;3.88;2.03;;;;;;;19.33;nan;100919.75;5008997;28;20121;-71
2022/07/04 05:55:07;;;;;;;3.45;1.45;;;;;;;19.70;nan;100916.59;5011017;28;20058;-72
2022/07/04 05:57:32;;;;;;;2.72;1.17;;;;;;;20.28;nan;100928.66;5015352;28;20379;-72
2022/07/04 05:59:57;;;;;;;2.40;1.10;;;;;;;21.13;nan;100926.94;5016314;28;20467;-71
2022/07/04 06:02:23;;;;;;;;;;;;;;;21.41;nan;100929.34;5011670;28;20042;-71
2022/07/04 06:04:48;;;;;;;1.80;1.10;;;;;;;21.85;nan;100924.97;5011674;28;20408;-72
2022/07/04 06:07:13;;;;;;;2.38;1.08;;;;;;;22.21;nan;100918.13;4990771;28;20657;-71
2022/07/04 06:09:39;;;;;;;3.13;1.07;;;;;;;22.59;nan;100921.75;5003996;28;20053;-72
2022/07/04 06:12:04;;;;;;;;;;;;;;;22.97;nan;100926.16;5002682;28;20289;-72
2022/07/04 06:14:29;;;;;;;2.08;1.00;;;;;;;23.16;nan;100935.91;5005086;28;19925;-72
2022/07/04 06:16:55;;;;;;;2.08;1.00;;;;;;;23.24;nan;100929.38;5010457;28;20458;-72
2022/07/04 06:19:20;;;;;;;2.20;1.00;;;;;;;23.29;nan;100929.56;5009451;28;20033;-72
2022/07/04 06:21:45;;;;;;;2.42;1.15;;;;;;;23.39;nan;100935.25;5011066;28;20041;-72
2022/07/04 06:24:11;;;;;;;2.90;1.10;;;;;;;23.71;nan;100929.63;4992076;28;20038;-72
2022/07/04 06:26:36;;;;;;;2.60;1.02;;;;;;;23.74;nan;100919.22;5007456;28;20332;-72
2022/07/04 06:29:01;;;;;;;2.97;1.35;;;;;;;23.83;nan;100918.91;5004260;28;20049;-72
2022/07/04 06:31:27;;;;;;;2.45;1.05;;;;;;;23.99;nan;100922.81;4988154;28;20042;-72
2022/07/04 06:36:36;;;;;;;2.58;1.20;;;;;;;24.17;nan;100917.34;5004173;28;20095;-72
2022/07/04 06:39:01;;;;;;;2.25;1.20;;;;;;;24.22;nan;100922.88;5004159;28;20050;-72
2022/07/04 06:41:27;;;;;;;1.58;0.80;;;;;;;24.48;nan;100918.09;5006752;28;20193;-72
2022/07/04 06:43:52;;;;;;;1.70;0.88;;;;;;;24.74;nan;100909.53;5009155;28;20103;-72
2022/07/04 06:46:18;;;;;;;2.83;1.43;;;;;;;24.70;nan;100907.53;5005601;28;20045;-72
2022/07/04 06:48:43;;;;;;;1.83;0.87;;;;;;;24.93;nan;100909.38;5003542;28;20273;-72
2022/07/04 06:51:08;;;;;;;2.37;0.90;;;;;;;25.10;nan;100906.75;5011333;28;20350;-72
2022/07/04 06:53:34;;;;;;;1.05;0.60;;;;;;;25.56;nan;100903.09;4995803;28;20812;-72
2022/07/04 06:55:59;;;;;;;2.88;0.90;;;;;;;25.47;nan;100899.13;5006415;28;20132;-72
2022/07/04 06:58:24;;;;;;;1.77;1.00;;;;;;;25.65;nan;100898.13;4989035;28;20069;-72
2022/07/04 07:00:50;;;;;;;3.05;0.93;;;;;;;25.51;nan;100894.88;5009549;28;20037;-72
2022/07/04 07:03:15;;;;;;;2.80;1.00;;;;;;;25.68;nan;100894.94;5003789;28;20041;-72
2022/07/04 07:05:40;;;;;;;2.30;0.80;;;;;;;26.10;nan;100893.75;5004465;28;20034;-72
2022/07/04 07:08:06;;;;;;;1.70;0.80;;;;;;;26.52;nan;100896.06;5004288;28;20578;-73
2022/07/04 07:10:32;;;;;;;1.98;0.80;;;;;;;26.54;nan;100900.19;5007257;28;20042;-72
2022/07/04 07:12:58;;;;;;;1.58;0.80;;;;;;;26.61;nan;100891.88;5005452;28;20044;-72
2022/07/04 07:15:24;;;;;;;1.98;0.90;;;;;;;26.79;nan;100891.59;5006619;28;20115;-72
2022/07/04 07:17:49;;;;;;;2.50;0.90;;;;;;;26.90;nan;100897.97;5006387;28;20030;-72
2022/07/04 07:20:15;;;;;;;2.25;0.70;;;;;;;27.36;nan;100900.44;5006240;28;20103;-73
2022/07/04 07:22:41;;;;;;;2.17;0.80;;;;;;;27.62;nan;100894.19;4991107;28;20044;-73
2022/07/04 07:25:07;;;;;;;1.73;0.70;;;;;;;27.93;nan;100892.63;5004616;28;20431;-72
2022/07/04 07:27:32;;;;;;;4.03;0.93;;;;;;;27.86;nan;100889.28;5006229;28;20030;-72
2022/07/04 07:29:58;;;;;;;3.30;0.90;;;;;;;28.01;nan;100885.06;5002873;28;20033;-72
2022/07/04 07:32:23;;;;;;;;;;;;;;;28.01;nan;100882.34;5006254;28;20033;-72
2022/07/04 07:34:48;;;;;;;;;;;;;;;28.38;nan;100885.88;5006611;28;19968;-73
2022/07/04 07:37:14;;;;;;;1.80;0.80;;;;;;;28.56;nan;100876.53;5002976;28;20031;-72
2022/07/04 07:39:39;;;;;;;3.50;1.10;;;;;;;28.35;nan;100874.72;4988099;28;20053;-72
2022/07/04 07:42:04;;;;;;;1.90;0.90;;;;;;;28.50;nan;100871.31;5005815;28;20369;-73
2022/07/04 07:44:30;;;;;;;2.03;0.90;;;;;;;28.45;nan;100871.25;5003599;28;20285;-72
2022/07/04 07:46:56;;;;;;;2.22;0.77;;;;;;;28.67;nan;100862.97;5007324;28;20107;-72
2022/07/04 07:49:21;;;;;;;1.33;0.57;;;;;;;28.83;nan;100853.78;5004388;28;20037;-72
2022/07/04 07:51:46;;;;;;;1.73;0.70;;;;;;;28.94;nan;100868.28;5001720;28;20037;-72
2022/07/04 07:54:13;;;;;;;2.35;0.85;;;;;;;29.06;nan;100868.06;5005515;28;20467;-73
2022/07/04 07:56:38;;;;;;;1.50;0.73;;;;;;;29.49;nan;100864.09;5004724;28;20058;-73
2022/07/04 07:59:04;;;;;;;1.83;0.70;;;;;;;29.54;nan;100860.56;4986088;28;20246;-72
2022/07/04 08:01:29;;;;;;;2.00;0.80;;;;;;;29.31;nan;100859.97;4996615;28;20112;-73
2022/07/04 08:06:38;;;;;;;1.25;0.68;;;;;;;29.54;nan;100855.13;5002378;28;20249;-73
2022/07/04 08:09:04;;;;;;;1.13;0.60;;;;;;;29.87;nan;100850.25;5003559;28;20132;-72
2022/07/04 08:11:29;;;;;;;1.38;0.60;;;;;;;30.65;nan;100845.25;5005291;28;20196;-73
2022/07/04 08:13:55;;;;;;;1.50;0.60;;;;;;;31.13;nan;100852.97;5008122;28;20061;-73
2022/07/04 08:16:20;;;;;;;1.23;0.52;;;;;;;31.53;nan;100848.34;5005765;28;20113;-73
2022/07/04 08:18:46;;;;;;;;;;;;;;;31.46;nan;100847.88;4986865;28;20403;-73
2022/07/04 08:21:13;;;;;;;1.57;0.63;;;;;;;31.16;nan;100837.94;5003139;28;19978;-73
2022/07/04 08:23:39;;;;;;;1.02;0.60;;;;;;;31.44;nan;100833.66;5006845;28;20067;-73
2022/07/04 08:26:04;;;;;;;2.17;0.70;;;;;;;31.80;nan;100842.41;5004730;28;20518;-73
2022/07/04 08:28:30;;;;;;;3.75;0.60;;;;;;;31.70;nan;100845.22;5006361;28;20065;-73
2022/07/04 08:30:56;;;;;;;2.13;0.93;;;;;;;31.67;nan;100843.88;5003053;28;20049;-72
2022/07/04 08:33:22;;;;;;;1.30;0.60;;;;;;;31.89;nan;100845.34;5003090;28;20065;-72
2022/07/04 08:35:48;;;;;;;0.97;0.50;;;;;;;32.79;nan;100841.97;5001206;28;20414;-73
2022/07/04 08:38:13;;;;;;;2.58;0.57;;;;;;;33.05;nan;100841.66;4985377;28;20281;-73
2022/07/04 08:40:40;;;;;;;2.23;0.70;;;;;;;33.18;nan;100840.09;4999319;28;20438;-72
2022/07/04 08:43:05;;;;;;;1.00;0.40;;;;;;;33.67;nan;100838.03;4973535;28;20405;-73
2022/07/04 08:45:33;;;;;;;0.77;0.40;;;;;;;34.55;nan;100833.41;5004717;28;20430;-73
2022/07/04 08:48:03;;;;;;;;;;;;;;;34.28;nan;100833.38;5004017;28;20037;-73
2022/07/04 08:50:37;;;;;;;1.60;0.80;;;;;;;33.42;nan;100837.31;5005403;28;19922;-73
2022/07/04 08:53:09;;;;;;;2.38;0.57;;;;;;;33.65;nan;100837.50;5002768;28;20041;-73
2022/07/04 08:58:29;;;;;;;1.10;0.57;;;;;;;34.33;nan;100845.09;4992397;28;20714;-72
2022/07/04 09:01:03;;;;;;;1.33;0.70;;;;;;;33.99;nan;100831.69;4993233;28;20045;-72
2022/07/04 09:03:30;;;;;;;1.17;0.50;;;;;;;34.30;nan;100839.41;4990174;28;20037;-73
2022/07/04 09:05:56;;;;;;;0.63;0.45;;;;;;;35.22;nan;100834.78;5003641;28;20527;-73
2022/07/04 09:08:21;;;;;;;;;;;;;;;35.60;nan;100834.41;5005411;28;20544;-73
2022/07/04 09:10:48;;;;;;;2.22;0.80;;;;;;;34.83;nan;100819.69;5006753;28;19932;-73
2022/07/04 09:13:14;;;;;;;2.50;0.90;;;;;;;33.18;nan;100829.97;5002295;28;20181;-73
2022/07/04 09:15:45;;;;;;;1.05;0.68;;;;;;;33.51;nan;100837.41;5003004;28;20042;-73
2022/07/04 09:18:24;;;;;;;1.45;0.77;;;;;;;34.11;nan;100832.09;5003306;28;20038;-73
2022/07/04 09:20:50;;;;;;;1.60;0.80;;;;;;;35.26;nan;100839.34;5004454;28;20036;-74
2022/07/04 09:23:23;;;;;;;1.42;0.80;;;;;;;36.47;nan;100835.75;5005048;28;20041;-74
2022/07/04 09:26:05;;;;;;;1.85;0.70;;;;;;;35.97;nan;100835.97;5002021;28;20561;-74
2022/07/04 09:28:31;;;;;;;1.20;0.70;;;;;;;35.62;nan;100833.00;5000897;28;20113;-74
2022/07/04 09:30:58;;;;;;;0.95;0.40;;;;;;;35.96;nan;100839.84;5004511;28;20109;-73
2022/07/04 09:33:44;;;;;;;1.38;0.65;;;;;;;36.89;nan;100833.41;5003681;28;20034;-74
2022/07/04 09:36:16;;;;;;;2.15;0.70;;;;;;;36.69;nan;100834.03;4988887;28;20096;-74
2022/07/04 09:38:43;;;;;;;2.60;0.70;;;;;;;36.06;nan;100828.56;5008750;28;20133;-74
2022/07/04 09:41:29;;;;;;;1.20;0.70;;;;;;;35.61;nan;100825.06;4988395;28;20092;-74
2022/07/04 09:44:05;;;;;;;1.17;0.57;;;;;;;36.23;nan;100833.38;5013006;28;20036;-74
2022/07/04 09:46:32;;;;;;;1.20;0.68;;;;;;;36.27;nan;100826.09;5008649;28;20036;-74
2022/07/04 09:48:58;;;;;;;2.17;0.70;;;;;;;35.23;nan;100823.47;5003462;28;20068;-74
2022/07/04 09:51:50;;;;;;;2.70;0.70;;;;;;;35.55;nan;100829.84;5007289;28;20041;-73
2022/07/04 09:54:18;;;;;;;1.05;0.60;;;;;;;36.03;nan;100833.91;4997433;28;20045;-73
2022/07/04 09:56:51;;;;;;;1.27;0.68;;;;;;;36.13;nan;100830.88;5005890;28;20512;-74
2022/07/04 09:59:17;;;;;;;1.52;0.60;;;;;;;36.17;nan;100833.84;5001987;28;20041;-74
2022/07/04 10:01:43;;;;;;;0.98;0.60;;;;;;;37.04;nan;100836.84;5005089;28;20398;-74
2022/07/04 10:04:09;;;;;;;1.67;0.70;;;;;;;37.82;nan;100837.63;5009628;28;20034;-74
2022/07/04 10:06:38;;;;;;;0.63;0.40;;;;;;;38.70;nan;100826.25;4993105;28;20034;-74
2022/07/04 10:09:15;;;;;;;1.10;0.40;;;;;;;38.40;nan;100829.00;5005180;28;20057;-74
2022/07/04 10:11:42;;;;;;;1.85;0.45;;;;;;;38.40;nan;100829.00;5007397;28;20503;-74
2022/07/04 10:14:09;;;;;;;1.83;0.65;;;;;;;38.49;nan;100821.50;5006754;28;20034;-74
2022/07/04 10:16:36;;;;;;;1.45;0.68;;;;;;;38.79;nan;100821.50;5008716;28;20113;-74
2022/07/04 10:19:03;;;;;;;2.35;0.80;;;;;;;38.57;nan;100817.91;5006360;28;20531;-74
2022/07/04 10:21:29;;;;;;;1.88;0.70;;;;;;;38.76;nan;100820.22;5009371;28;20046;-74
2022/07/04 10:23:55;;;;;;;1.42;0.60;;;;;;;39.09;nan;100822.25;5005798;28;20462;-75
2022/07/04 10:26:22;;;;;;;1.20;0.70;;;;;;;39.01;nan;100815.66;5007802;28;20054;-74
2022/07/04 10:28:49;;;;;;;1.92;0.90;;;;;;;39.22;nan;100818.41;5008010;28;20034;-74
2022/07/04 10:31:16;;;;;;;2.58;0.88;;;;;;;39.63;nan;100821.47;5003535;28;20034;-75
2022/07/04 10:33:43;;;;;;;2.13;0.75;;;;;;;39.89;nan;100829.50;5006704;28;20544;-74
2022/07/04 10:36:29;;;;;;;1.27;0.70;;;;;;;40.05;nan;100819.38;5004337;28;20030;-74
2022/07/04 10:38:58;;;;;;;1.80;0.93;;;;;;;39.99;nan;100820.75;4986906;28;20402;-75
2022/07/04 10:41:27;;;;;;;2.85;0.75;;;;;;;39.95;nan;100824.53;5002674;28;20077;-75
2022/07/04 10:44:00;;;;;;;1.65;0.60;;;;;;;40.54;nan;100829.66;5008378;28;20033;-74
2022/07/04 10:46:37;;;;;;;1.05;0.70;;;;;;;40.65;nan;100819.72;5004461;28;20491;-74
2022/07/04 10:49:07;;;;;;;2.20;0.80;;;;;;;39.58;nan;100816.16;5001131;28;20041;-75
2022/07/04 10:51:47;;;;;;;1.98;0.70;;;;;;;39.10;nan;100812.03;5002681;28;20491;-74
2022/07/04 10:54:20;;;;;;;1.42;0.60;;;;;;;39.55;nan;100816.84;5006891;28;20092;-74
2022/07/04 10:56:54;;;;;;;1.45;0.60;;;;;;;39.50;nan;100818.66;5006532;28;20034;-74
2022/07/04 10:59:25;;;;;;;1.20;0.68;;;;;;;39.26;nan;100815.75;5005654;28;20036;-74
2022/07/04 11:02:06;;;;;;;2.05;0.75;;;;;;;38.52;nan;100817.25;5007735;28;20061;-74
2022/07/04 11:04:50;;;;;;;1.75;0.70;;;;;;;38.69;nan;100810.81;5003702;28;20038;-74
2022/07/04 11:07:18;;;;;;;1.90;0.60;;;;;;;40.36;nan;100814.44;5002998;28;20518;-74
2022/07/04 11:09:44;;;;;;;1.52;0.57;;;;;;;41.86;nan;100823.56;5006951;28;20044;-74
2022/07/04 11:12:12;;;;;;;1.75;0.85;;;;;;;41.93;nan;100823.75;5004081;28;20037;-74
2022/07/04 11:14:46;;;;;;;1.48;0.70;;;;;;;40.35;nan;100827.50;5005905;28;20037;-74
2022/07/04 11:17:14;;;;;;;1.52;0.70;;;;;;;39.56;nan;100813.72;5006463;28;20037;-74
2022/07/04 11:19:40;;;;;;;2.00;0.63;;;;;;;39.30;nan;100811.16;5000483;28;20518;-73
2022/07/04 11:22:08;;;;;;;0.98;0.68;;;;;;;39.39;nan;100811.13;5004283;28;20502;-73
2022/07/04 11:24:34;;;;;;;2.03;0.60;;;;;;;40.68;nan;100810.72;5007138;28;20079;-73
2022/07/04 11:27:00;;;;;;;3.30;0.60;;;;;;;42.46;nan;100812.41;5006815;28;20037;-73
2022/07/04 11:29:26;;;;;;;3.22;0.65;;;;;;;43.33;nan;100821.44;5002471;28;20038;-73
2022/07/04 11:31:52;;;;;;;1.88;0.70;;;;;;;43.64;nan;100814.88;5008625;28;20032;-73
2022/07/04 11:34:18;;;;;;;1.02;0.50;;;;;;;43.05;nan;100809.34;5006761;28;20103;-74
2022/07/04 11:36:45;;;;;;;2.22;0.57;;;;;;;43.21;nan;100811.25;5008725;28;20124;-74
2022/07/04 11:39:19;;;;;;;1.83;0.82;;;;;;;42.23;nan;100807.47;5006050;28;20108;-74
2022/07/04 11:47:23;;;;;;;1.35;0.60;;;;;;;43.68;nan;100796.25;5000887;28;20081;-72
2022/07/04 11:49:55;;;;;;;1.42;0.60;;;;;;;43.88;nan;100799.75;5005140;28;20055;-73
2022/07/04 11:52:29;;;;;;;0.90;0.70;;;;;;;43.20;nan;100790.97;4997577;28;20033;-73
2022/07/04 11:54:55;;;;;;;3.35;0.70;;;;;;;42.65;nan;100781.84;5011801;28;20064;-73
2022/07/04 11:57:28;;;;;;;2.22;0.45;;;;;;;41.76;nan;100789.63;4990599;28;20033;-73
2022/07/04 11:59:56;;;;;;;1.05;0.40;;;;;;;42.24;nan;100784.09;5008328;28;20534;-73
2022/07/04 12:02:22;;;;;;;1.98;0.45;;;;;;;42.26;nan;100783.69;5008415;28;20715;-72
2022/07/04 12:04:47;;;;;;;2.47;0.65;;;;;;;42.44;nan;100779.41;5007805;28;20368;-73